Airfield :







YOU CAN JOIN US ON...

 
LOGIN :

Register | Disclaimer

   EN    FR    IT 

 









Legend :    VFR   Marginal VFR   IFR   Intensive IFR   Very Intensive IFR
Visi :
Ceiling :
>= 8 km
>= 3000ft
5 to 8 km
1000 to 3000 ft
1500m to 5 km
500 to 1000 ft
800 to 1500m
200 to 500 ft
< 800m
< 200 ft
Symbols :   Thunderstorms  Fog  Heavy snow  Heavy precipitations  Wind > 20 kt







- Airport Elevation : 352 ft


KAUG - Augusta State

CURRENT METAR :
  • 192153Z AUTO VRB05KT 10SM OVC027 14/10 A2997 RMK AO2 SLP150 T01440100

EXPIRED METARs :
  • 192129Z AUTO 18006KT 10SM BKN027 16/10 A2997 RMK AO2 T01560100
  • 192109Z AUTO VRB04KT 10SM SCT028 15/09 A2998 RMK AO2 T01500094
  • 192053Z AUTO 16005KT 10SM BKN027 15/09 A2998 RMK AO2 SLP154 T01500094 56022
  • 192019Z AUTO VRB04KT 10SM BKN027 15/09 A3000 RMK AO2 T01500094
  • 192009Z AUTO 15005KT 10SM SCT027 15/09 A3000 RMK AO2 T01500094
  • 191953Z AUTO VRB04KT 10SM SCT022 BKN029 14/09 A3000 RMK AO2 SLP162 T01440089
  • 191936Z AUTO 13008KT 10SM BKN021 BKN034 14/09 A3001 RMK AO2 T01440089

TAF KAUG
Valid from the 19 at 18:00 until the 20 at 18:00 UTC


191727Z 1918/2018 16010KT P6SM OVC025
FM200200 VRB04KT 3SM SHRA OVC008
FM200400 VRB04KT 2SM SHRA BR OVC003
FM200600 VRB03KT 1SM BR OVC003
FM201400 22005KT P6SM BKN008
FM201600 22007KT P6SM BKN025
KZBW FIR / North America



MET'MAP, your aeronautical weather chart ! - Copyright ORBIFLY December 2007 - Disclaimer

ORBIFLY MET'MAP TEAM :

Programming & Development : Alexandra Zaïnal
Concept & Development : Baudouin d'Aumeries
Co-Development & Prog : Marc-Olivier Méhu
Technical & hardware support : Manuel Goepfert

Contact : metmap@orbifly.com




SOURCES & CREDITS :

   NOAA